LTCB Airport Information

Runway Information
Airport Frequencies
Airport Navaids
Airport Weather Information & NOTAM
ADDS - METARS form results

(1454 UTC 19 January 2019)
Data provider http://aviationweather.gov/metar/data/
 
Forecast for: LTCB (ORDU , TR)
Text: TAF LTCB 191340Z 1915/1924 11010KT CAVOK
Forecast period: 1500 to 1600 UTC 19 January 2019
Forecast type: FROM: standard forecast or significant change
Winds: from the ESE (110 degrees) at 12 MPH (10 knots; 5.1 m/s)
Visibility: 6 or more miles 10+ km)
Ceiling: unknown
Clouds: missing
Weather: NSW  (no significant weather)
Text: BECMG 1916/1919 19008KT
Forecast period: 1600 UTC 19 January 2019 to 0000 UTC 20 January 2019
Forecast type: BECOMING: Conditions expected to become as follows by 1900 UTC 19 January 2019
Winds: from the S (190 degrees) at 9 MPH (8 knots; 4.1 m/s)
Visibility: 6 or more miles 10+ km)
Ceiling: unknown
Clouds: missing
Weather: NSW  (no significant weather)